Time;durP1;ratioP1;P1;durP2;ratioP2;P2;SDS_P1;SDS_P2;PMS_P1;PMS_P2;Temp;Humidity;BMP_temperature;BMP_pressure;BME280_temperature;BME280_humidity;BME280_pressure;Samples;Min_cycle;Max_cycle;Signal;HPM_P1;HPM_P2
2023/08/04 00:00:48;;;;;;;28.40;3.38;;;;;;;;;;4994263;28;20031;-59
2023/08/04 00:03:15;;;;;;;49.42;4.90;;;;;;;;;;4993348;28;20050;-60
2023/08/04 00:05:42;;;;;;;54.95;5.10;;;;;;;;;;4994251;28;20041;-60
2023/08/04 00:08:09;;;;;;;42.75;4.65;;;;;;;;;;4983354;28;20072;-60
2023/08/04 00:10:36;;;;;;;45.45;4.63;;;;;;;;;;4980672;28;20065;-61
2023/08/04 00:13:03;;;;;;;42.67;4.80;;;;;;;;;;4993890;28;20034;-60
2023/08/04 00:15:30;;;;;;;36.95;4.30;;;;;;;;;;4993941;28;20057;-60
2023/08/04 00:17:57;;;;;;;43.25;3.60;;;;;;;;;;4993653;28;20037;-61
2023/08/04 00:20:25;;;;;;;38.47;5.25;;;;;;;;;;4975875;28;20027;-60
2023/08/04 00:22:52;;;;;;;35.00;4.28;;;;;;;;;;4974163;28;20515;-60
2023/08/04 00:25:19;;;;;;;36.65;4.88;;;;;;;;;;4987246;28;20030;-61
2023/08/04 00:27:46;;;;;;;43.97;9.07;;;;;;;;;;4991412;28;20072;-60
2023/08/04 00:30:13;;;;;;;72.07;16.38;;;;;;;;;;4993275;28;20392;-60
2023/08/04 00:32:40;;;;;;;108.97;29.88;;;;;;;;;;4992537;28;20074;-60
2023/08/04 00:35:07;;;;;;;119.30;37.28;;;;;;;;;;4989683;28;20428;-61
2023/08/04 00:37:34;;;;;;;165.05;48.42;;;;;;;;;;4992029;28;20606;-61
2023/08/04 00:40:02;;;;;;;192.65;55.28;;;;;;;;;;4993020;28;20503;-59
2023/08/04 00:42:29;;;;;;;190.13;56.55;;;;;;;;;;4992996;28;20453;-59
2023/08/04 00:44:56;;;;;;;202.95;63.13;;;;;;;;;;4991581;28;20425;-62
2023/08/04 00:47:25;;;;;;;237.73;68.95;;;;;;;;;;4989196;28;20468;-60
2023/08/04 00:49:53;;;;;;;258.63;74.45;;;;;;;;;;4992851;28;20440;-61
2023/08/04 00:52:21;;;;;;;217.05;60.03;;;;;;;;;;4993335;28;20117;-60
2023/08/04 00:54:48;;;;;;;217.60;59.53;;;;;;;;;;4993003;28;20022;-60
2023/08/04 00:57:15;;;;;;;212.02;58.65;;;;;;;;;;4993320;28;20563;-60
2023/08/04 00:59:42;;;;;;;229.30;61.60;;;;;;;;;;4993141;28;20019;-60
2023/08/04 01:02:09;;;;;;;225.52;62.63;;;;;;;;;;4989997;28;20030;-61
2023/08/04 01:04:37;;;;;;;222.10;62.63;;;;;;;;;;4983592;28;20026;-60
2023/08/04 01:07:04;;;;;;;220.55;62.03;;;;;;;;;;4992938;28;20030;-59
2023/08/04 01:09:43;;;;;;;193.82;59.88;;;;;;;;;;4992900;28;20184;-59
2023/08/04 01:12:10;;;;;;;211.45;59.17;;;;;;;;;;4984685;28;20030;-61
2023/08/04 01:14:38;;;;;;;204.88;58.00;;;;;;;;;;4985838;28;20034;-61
2023/08/04 01:17:24;;;;;;;187.68;56.88;;;;;;;;;;4988282;28;20595;-61
2023/08/04 01:19:51;;;;;;;199.80;57.30;;;;;;;;;;4992877;28;20444;-61
2023/08/04 01:22:19;;;;;;;186.63;57.63;;;;;;;;;;4992607;28;20065;-60
2023/08/04 01:24:46;;;;;;;187.82;53.40;;;;;;;;;;4991051;28;20065;-60
2023/08/04 01:27:14;;;;;;;176.52;52.83;;;;;;;;;;4992413;28;20038;-59
2023/08/04 01:29:44;;;;;;;171.45;51.67;;;;;;;;;;4992555;28;20042;-59
2023/08/04 01:32:11;;;;;;;151.02;46.85;;;;;;;;;;4980771;28;20046;-58
2023/08/04 01:34:41;;;;;;;167.93;49.28;;;;;;;;;;4989882;28;20477;-60
2023/08/04 01:37:09;;;;;;;164.90;48.88;;;;;;;;;;4992168;28;20045;-59
2023/08/04 01:39:38;;;;;;;162.20;49.08;;;;;;;;;;4992069;28;20129;-60
2023/08/04 01:42:05;;;;;;;144.07;46.67;;;;;;;;;;4992321;28;20037;-58
2023/08/04 01:44:32;;;;;;;154.98;48.20;;;;;;;;;;4991016;28;20029;-60
2023/08/04 01:47:03;;;;;;;147.85;43.67;;;;;;;;;;4983085;28;20034;-59
2023/08/04 01:49:31;;;;;;;141.13;45.35;;;;;;;;;;4974767;28;20058;-60
2023/08/04 01:51:58;;;;;;;138.32;43.03;;;;;;;;;;4967714;28;20030;-59
2023/08/04 01:54:25;;;;;;;151.93;42.45;;;;;;;;;;4991503;28;20109;-59
2023/08/04 01:56:53;;;;;;;130.38;40.92;;;;;;;;;;4991073;28;20092;-58
2023/08/04 01:59:20;;;;;;;118.35;41.13;;;;;;;;;;4991466;28;20022;-58
2023/08/04 02:01:48;;;;;;;125.82;38.42;;;;;;;;;;4991262;28;20116;-59
2023/08/04 02:04:15;;;;;;;132.65;40.47;;;;;;;;;;4991301;28;20022;-60
2023/08/04 02:06:42;;;;;;;115.95;38.13;;;;;;;;;;4991621;28;20085;-60
2023/08/04 02:09:11;;;;;;;118.22;38.40;;;;;;;;;;4991287;28;20042;-59
2023/08/04 02:11:38;;;;;;;104.57;37.50;;;;;;;;;;4990893;28;20125;-58
2023/08/04 02:14:05;;;;;;;114.70;38.10;;;;;;;;;;4991144;28;20022;-56
2023/08/04 02:16:32;;;;;;;103.07;36.50;;;;;;;;;;4991101;28;20038;-59
2023/08/04 02:19:06;;;;;;;113.35;34.63;;;;;;;;;;4991580;28;20037;-59
2023/08/04 02:21:34;;;;;;;107.72;34.90;;;;;;;;;;4991418;28;20488;-59
2023/08/04 02:24:01;;;;;;;108.57;35.05;;;;;;;;;;4992636;28;20026;-59
2023/08/04 02:26:28;;;;;;;100.07;34.28;;;;;;;;;;4996251;28;20030;-59
2023/08/04 02:28:55;;;;;;;101.43;34.00;;;;;;;;;;4996038;28;20038;-59
2023/08/04 02:31:24;;;;;;;97.93;32.85;;;;;;;;;;4996094;28;20033;-59
2023/08/04 02:33:52;;;;;;;101.65;33.58;;;;;;;;;;4995966;28;20057;-58
2023/08/04 02:36:21;;;;;;;99.07;32.58;;;;;;;;;;4996155;28;20081;-59
2023/08/04 02:38:48;;;;;;;93.45;31.85;;;;;;;;;;4995985;28;20118;-58
2023/08/04 02:41:15;;;;;;;94.63;32.95;;;;;;;;;;4995931;28;20504;-58
2023/08/04 02:43:42;;;;;;;84.95;29.52;;;;;;;;;;4996028;28;20031;-59
2023/08/04 02:46:12;;;;;;;88.10;29.92;;;;;;;;;;4995940;28;20038;-59
2023/08/04 02:48:39;;;;;;;85.72;29.52;;;;;;;;;;4995844;28;20042;-59
2023/08/04 02:51:07;;;;;;;83.50;29.58;;;;;;;;;;4995686;28;20073;-61
2023/08/04 02:53:35;;;;;;;78.47;28.83;;;;;;;;;;4995686;28;20030;-57
2023/08/04 02:56:09;;;;;;;81.60;29.00;;;;;;;;;;4995824;28;20026;-60
2023/08/04 02:58:36;;;;;;;81.28;28.13;;;;;;;;;;4995589;28;20046;-59
2023/08/04 03:01:03;;;;;;;74.53;27.67;;;;;;;;;;4995629;28;20037;-57
2023/08/04 03:03:32;;;;;;;71.43;26.75;;;;;;;;;;4995456;28;20113;-59
2023/08/04 03:05:59;;;;;;;76.03;26.65;;;;;;;;;;4995588;28;20349;-59
2023/08/04 03:08:27;;;;;;;77.90;25.80;;;;;;;;;;4995450;28;20034;-59
2023/08/04 03:10:58;;;;;;;72.45;26.58;;;;;;;;;;4995238;28;20054;-59
2023/08/04 03:13:25;;;;;;;73.28;25.98;;;;;;;;;;4995243;28;20054;-58
2023/08/04 03:15:57;;;;;;;70.30;24.95;;;;;;;;;;4995413;28;20065;-59
2023/08/04 03:18:24;;;;;;;;;;;;;;;;;;4995701;28;20575;-59
2023/08/04 03:20:51;;;;;;;72.22;23.98;;;;;;;;;;4995049;28;20020;-59
2023/08/04 03:23:18;;;;;;;68.15;23.95;;;;;;;;;;4995243;28;20022;-57
2023/08/04 03:25:45;;;;;;;58.67;22.95;;;;;;;;;;4995152;28;20026;-58
2023/08/04 03:28:12;;;;;;;61.40;22.40;;;;;;;;;;4995070;28;20942;-57
2023/08/04 03:30:39;;;;;;;59.00;22.75;;;;;;;;;;4995037;28;20057;-58
2023/08/04 03:33:06;;;;;;;57.50;21.92;;;;;;;;;;4994812;28;20050;-57
2023/08/04 03:35:33;;;;;;;66.97;22.90;;;;;;;;;;4994435;28;20109;-57
2023/08/04 03:38:00;;;;;;;57.83;22.02;;;;;;;;;;4994943;28;20018;-57
2023/08/04 03:40:27;;;;;;;58.72;22.42;;;;;;;;;;4994724;28;20101;-59
2023/08/04 03:42:54;;;;;;;49.15;21.00;;;;;;;;;;4994886;28;20045;-57
2023/08/04 03:45:21;;;;;;;55.05;20.23;;;;;;;;;;4994874;28;20026;-58
2023/08/04 03:47:48;;;;;;;50.88;19.35;;;;;;;;;;4994620;28;20038;-58
2023/08/04 03:50:15;;;;;;;47.92;19.08;;;;;;;;;;4994687;28;20102;-58
2023/08/04 03:52:42;;;;;;;51.13;19.80;;;;;;;;;;4994752;28;20030;-59
2023/08/04 03:55:09;;;;;;;57.55;20.17;;;;;;;;;;4994690;28;20062;-58
2023/08/04 03:57:36;;;;;;;51.17;19.65;;;;;;;;;;4994636;28;20038;-58
2023/08/04 04:00:04;;;;;;;45.22;18.48;;;;;;;;;;4994513;28;20034;-58
2023/08/04 04:02:31;;;;;;;49.17;18.48;;;;;;;;;;4994377;28;20038;-58
2023/08/04 04:04:58;;;;;;;58.85;19.27;;;;;;;;;;4994467;28;20022;-58
2023/08/04 04:07:25;;;;;;;49.78;18.92;;;;;;;;;;4994442;28;20073;-58
2023/08/04 04:09:52;;;;;;;44.55;18.15;;;;;;;;;;4994180;28;20040;-59
2023/08/04 04:12:19;;;;;;;44.50;17.15;;;;;;;;;;4994409;28;20109;-59
2023/08/04 04:14:46;;;;;;;48.83;18.48;;;;;;;;;;4994292;28;20042;-58
2023/08/04 04:17:13;;;;;;;46.33;17.55;;;;;;;;;;4994267;28;20043;-58
2023/08/04 04:19:41;;;;;;;44.58;16.85;;;;;;;;;;4994138;28;20092;-59
2023/08/04 04:22:10;;;;;;;42.28;16.13;;;;;;;;;;4994179;28;20112;-58
2023/08/04 04:24:37;;;;;;;43.03;15.65;;;;;;;;;;4994104;28;20026;-58
2023/08/04 04:27:04;;;;;;;42.03;15.60;;;;;;;;;;4994042;28;20042;-58
2023/08/04 04:29:32;;;;;;;37.70;15.38;;;;;;;;;;4993908;28;20034;-58
2023/08/04 05:27:36;;;;;;;26.35;10.85;;;;;;;;;;4989990;28;20830;-59
2023/08/04 05:30:28;;;;;;;27.70;11.27;;;;;;;;;;4989585;28;20058;-58
2023/08/04 05:33:20;;;;;;;25.83;10.98;;;;;;;;;;4989503;28;20519;-60
2023/08/04 05:36:12;;;;;;;25.63;10.13;;;;;;;;;;4989499;28;20057;-57
2023/08/04 05:39:04;;;;;;;22.27;10.38;;;;;;;;;;4989088;28;20149;-57
2023/08/04 10:34:35;;;;;;;11.68;4.43;;;;;;;;;;5023607;28;20650;-59
2023/08/04 10:37:15;;;;;;;9.88;3.50;;;;;;;;;;5015840;28;20514;-62
2023/08/04 10:39:57;;;;;;;16.40;4.28;;;;;;;;;;5011519;28;20033;-60
2023/08/04 10:42:31;;;;;;;14.50;4.03;;;;;;;;;;5011119;28;20038;-62
2023/08/04 10:45:05;;;;;;;14.40;4.03;;;;;;;;;;5021807;28;20487;-61
2023/08/04 10:47:40;;;;;;;16.20;4.13;;;;;;;;;;5033743;28;20104;-61
2023/08/04 10:50:07;;;;;;;21.70;4.70;;;;;;;;;;5034878;28;20091;-63
2023/08/04 10:52:35;;;;;;;20.20;3.83;;;;;;;;;;5035030;28;20032;-63
2023/08/04 10:55:04;;;;;;;10.30;3.50;;;;;;;;;;5033225;28;20030;-57
2023/08/04 10:57:32;;;;;;;14.50;4.22;;;;;;;;;;5033208;28;20088;-58
2023/08/04 10:59:59;;;;;;;20.80;4.20;;;;;;;;;;5034871;28;20052;-56
2023/08/04 11:02:26;;;;;;;17.10;4.60;;;;;;;;;;5029699;28;20056;-51
2023/08/04 11:04:54;;;;;;;25.55;4.75;;;;;;;;;;5011146;28;20064;-52
2023/08/04 11:07:22;;;;;;;32.90;4.90;;;;;;;;;;5023670;28;20124;-53
2023/08/04 11:09:50;;;;;;;30.48;4.70;;;;;;;;;;5023876;28;20045;-52
2023/08/04 11:12:17;;;;;;;28.30;4.65;;;;;;;;;;5023331;28;20030;-58
2023/08/04 11:14:49;;;;;;;47.22;5.68;;;;;;;;;;5023106;28;20030;-54
2023/08/04 11:17:16;;;;;;;;;;;;;;;;;;5021654;28;20483;-57
2023/08/04 11:19:43;;;;;;;35.58;5.10;;;;;;;;;;5024689;28;20653;-45
2023/08/04 11:22:13;;;;;;;395.35;26.88;;;;;;;;;;5028785;28;20030;-43
2023/08/04 11:24:40;;;;;;;308.10;21.42;;;;;;;;;;5022189;28;20420;-43
2023/08/04 11:27:08;;;;;;;157.32;11.43;;;;;;;;;;5024123;28;20040;-45
2023/08/04 11:29:36;;;;;;;72.00;9.35;;;;;;;;;;5018267;28;20533;-52
2023/08/04 11:32:08;;;;;;;62.63;8.55;;;;;;;;;;4996820;28;20030;-52
2023/08/04 11:34:35;;;;;;;72.47;8.63;;;;;;;;;;5028317;28;20095;-51
2023/08/04 11:37:02;;;;;;;64.25;8.00;;;;;;;;;;5026037;28;20074;-45
2023/08/04 11:39:30;;;;;;;177.02;14.05;;;;;;;;;;5030184;28;20125;-46
2023/08/04 11:41:57;;;;;;;95.38;10.32;;;;;;;;;;5024602;28;20061;-48
2023/08/04 11:44:24;;;;;;;99.30;9.50;;;;;;;;;;5029837;28;20487;-48
2023/08/04 11:46:51;;;;;;;52.03;7.32;;;;;;;;;;5033827;28;20041;-47
2023/08/04 11:49:18;;;;;;;56.67;6.70;;;;;;;;;;5028945;28;20798;-51
2023/08/04 11:51:45;;;;;;;53.80;6.47;;;;;;;;;;5026863;28;20041;-51
2023/08/04 11:54:23;;;;;;;58.28;8.02;;;;;;;;;;5021171;28;20084;-47
2023/08/04 11:56:56;;;;;;;46.25;6.78;;;;;;;;;;5026315;28;20502;-46
2023/08/04 11:59:24;;;;;;;34.22;7.13;;;;;;;;;;5030448;28;20029;-54
2023/08/04 12:01:51;;;;;;;57.30;6.28;;;;;;;;;;5012658;28;20033;-53
2023/08/04 12:04:22;;;;;;;42.60;6.65;;;;;;;;;;5011955;28;20391;-48
2023/08/04 12:06:58;;;;;;;46.17;7.40;;;;;;;;;;5017829;28;20029;-50
2023/08/04 12:09:26;;;;;;;49.38;7.13;;;;;;;;;;5021136;28;20034;-53
2023/08/04 12:11:53;;;;;;;48.85;6.55;;;;;;;;;;5027115;28;20030;-53
2023/08/04 12:14:20;;;;;;;50.10;7.70;;;;;;;;;;5022373;28;20029;-52
2023/08/04 12:16:51;;;;;;;35.30;6.35;;;;;;;;;;5013558;28;20045;-51
2023/08/04 12:19:18;;;;;;;42.45;7.25;;;;;;;;;;5013221;28;20091;-48
2023/08/04 12:21:46;;;;;;;60.72;7.30;;;;;;;;;;5011997;28;20046;-51
2023/08/04 12:24:13;;;;;;;51.33;7.25;;;;;;;;;;5011844;28;20025;-48
2023/08/04 12:26:42;;;;;;;40.92;6.78;;;;;;;;;;5015813;28;20021;-51
2023/08/04 12:29:12;;;;;;;40.28;7.25;;;;;;;;;;5026285;28;20056;-51
2023/08/04 12:31:39;;;;;;;50.20;6.97;;;;;;;;;;5031596;28;20592;-50
2023/08/04 12:34:07;;;;;;;54.70;7.25;;;;;;;;;;5031434;28;20041;-51
2023/08/04 12:36:34;;;;;;;41.05;6.82;;;;;;;;;;5025357;28;20049;-50
2023/08/04 12:39:03;;;;;;;48.38;8.20;;;;;;;;;;5014417;28;20060;-50
2023/08/04 12:41:31;;;;;;;44.60;6.82;;;;;;;;;;5022356;28;20037;-50
2023/08/04 12:43:58;;;;;;;44.35;7.05;;;;;;;;;;5027815;28;20486;-47
2023/08/04 12:46:28;;;;;;;41.35;6.78;;;;;;;;;;5028920;28;20039;-49
2023/08/04 12:48:56;;;;;;;46.35;7.13;;;;;;;;;;5028138;28;20121;-51
2023/08/04 12:51:23;;;;;;;52.63;8.38;;;;;;;;;;5032932;28;20029;-49
2023/08/04 12:53:51;;;;;;;51.15;8.43;;;;;;;;;;5020308;28;20471;-50
2023/08/04 12:56:18;;;;;;;44.60;7.13;;;;;;;;;;5013064;28;20030;-52
2023/08/04 12:58:45;;;;;;;43.22;7.40;;;;;;;;;;5012638;28;20506;-51
2023/08/04 13:01:12;;;;;;;61.65;8.55;;;;;;;;;;5012983;28;20479;-48
2023/08/04 13:03:39;;;;;;;55.30;8.57;;;;;;;;;;5012771;28;20482;-51
2023/08/04 13:06:06;;;;;;;40.08;7.22;;;;;;;;;;5012870;28;20037;-52
2023/08/04 13:08:33;;;;;;;47.80;6.70;;;;;;;;;;5011763;28;20470;-50
2023/08/04 13:11:00;;;;;;;40.35;7.35;;;;;;;;;;5012755;28;20096;-51
2023/08/04 13:13:27;;;;;;;50.85;7.70;;;;;;;;;;5011994;28;20030;-52
2023/08/04 13:15:55;;;;;;;47.28;7.40;;;;;;;;;;5012596;28;20029;-51
2023/08/04 13:18:22;;;;;;;38.95;7.07;;;;;;;;;;5021967;28;20452;-49
2023/08/04 13:20:49;;;;;;;40.35;6.60;;;;;;;;;;5030620;28;20037;-50
2023/08/04 13:23:16;;;;;;;37.13;7.07;;;;;;;;;;5032204;28;20030;-52
2023/08/04 13:25:43;;;;;;;45.03;7.03;;;;;;;;;;5032123;28;20113;-51
2023/08/04 13:28:11;;;;;;;37.67;6.78;;;;;;;;;;5031893;28;20034;-51
2023/08/04 13:30:38;;;;;;;38.85;7.07;;;;;;;;;;5032022;28;20091;-52
2023/08/04 13:33:05;;;;;;;44.60;6.57;;;;;;;;;;5032149;28;20535;-52
2023/08/04 13:35:32;;;;;;;41.72;7.03;;;;;;;;;;5031713;28;20076;-52
2023/08/04 13:37:59;;;;;;;43.17;6.88;;;;;;;;;;5032070;28;20029;-51
2023/08/04 13:40:26;;;;;;;36.58;6.20;;;;;;;;;;5031813;28;20395;-52
2023/08/04 13:42:53;;;;;;;40.40;6.45;;;;;;;;;;5022343;28;20025;-50
2023/08/04 13:45:20;;;;;;;64.40;7.95;;;;;;;;;;5020557;28;20060;-51
2023/08/04 13:47:47;;;;;;;50.50;6.70;;;;;;;;;;5020693;28;20033;-50
2023/08/04 13:50:14;;;;;;;61.78;6.93;;;;;;;;;;5022057;28;20410;-51
2023/08/04 13:52:41;;;;;;;47.13;6.22;;;;;;;;;;5029964;28;20064;-49
2023/08/04 13:55:08;;;;;;;47.58;6.03;;;;;;;;;;5030775;28;20108;-53
2023/08/04 13:57:35;;;;;;;68.50;8.73;;;;;;;;;;5031113;28;20034;-51
2023/08/04 14:00:04;;;;;;;44.72;6.95;;;;;;;;;;5030832;28;20756;-53
2023/08/04 14:02:32;;;;;;;60.83;6.95;;;;;;;;;;5010990;28;20040;-49
2023/08/04 14:05:00;;;;;;;62.25;7.40;;;;;;;;;;5030738;28;20037;-49
2023/08/04 14:07:27;;;;;;;54.03;6.65;;;;;;;;;;5030783;28;20032;-53
2023/08/04 14:09:54;;;;;;;59.83;6.90;;;;;;;;;;5030942;28;20021;-54
2023/08/04 14:12:21;;;;;;;46.33;7.00;;;;;;;;;;5030751;28;20490;-50
2023/08/04 14:14:52;;;;;;;53.72;6.15;;;;;;;;;;5030599;28;20041;-50
2023/08/04 14:17:19;;;;;;;53.00;5.90;;;;;;;;;;5030819;28;20034;-50
2023/08/04 14:19:46;;;;;;;51.50;6.43;;;;;;;;;;5029977;28;20459;-52
2023/08/04 14:22:13;;;;;;;52.75;6.72;;;;;;;;;;5030770;28;20026;-50
2023/08/04 14:24:40;;;;;;;46.03;6.72;;;;;;;;;;5030563;28;20107;-50
2023/08/04 14:27:07;;;;;;;53.30;6.95;;;;;;;;;;5030696;28;20037;-52
2023/08/04 14:29:34;;;;;;;48.80;7.55;;;;;;;;;;5030608;28;20036;-51
2023/08/04 14:32:01;;;;;;;41.80;7.10;;;;;;;;;;5030632;28;20021;-52
2023/08/04 14:34:29;;;;;;;38.20;6.53;;;;;;;;;;5030385;28;20033;-49
2023/08/04 14:36:56;;;;;;;49.42;6.85;;;;;;;;;;5010944;28;20041;-51
2023/08/04 14:39:23;;;;;;;41.80;6.78;;;;;;;;;;5010411;28;20028;-51
2023/08/04 14:41:51;;;;;;;38.55;5.72;;;;;;;;;;5010491;28;20046;-52
2023/08/04 14:44:18;;;;;;;36.00;5.93;;;;;;;;;;5010709;28;20026;-52
2023/08/04 14:46:46;;;;;;;46.17;6.13;;;;;;;;;;5010752;28;20037;-51
2023/08/04 14:49:13;;;;;;;39.45;5.65;;;;;;;;;;5010878;28;20111;-49
2023/08/04 14:51:40;;;;;;;43.40;5.57;;;;;;;;;;5011454;28;20026;-52
2023/08/04 14:54:07;;;;;;;40.60;5.70;;;;;;;;;;5011306;28;20533;-52
2023/08/04 14:56:34;;;;;;;58.72;7.03;;;;;;;;;;5011337;28;20107;-52
2023/08/04 14:59:02;;;;;;;51.97;6.40;;;;;;;;;;5011216;28;20030;-52
2023/08/04 15:01:29;;;;;;;52.80;6.43;;;;;;;;;;5010596;28;20492;-52
2023/08/04 15:03:56;;;;;;;59.53;6.57;;;;;;;;;;5008050;28;20041;-51
2023/08/04 15:06:23;;;;;;;62.03;6.75;;;;;;;;;;5010284;28;20117;-48
2023/08/04 15:08:50;;;;;;;46.28;6.28;;;;;;;;;;5010539;28;20048;-51
2023/08/04 15:11:17;;;;;;;62.35;7.07;;;;;;;;;;5010716;28;20030;-51
2023/08/04 15:13:46;;;;;;;57.13;6.60;;;;;;;;;;5010204;28;20072;-49
2023/08/04 15:16:13;;;;;;;55.80;6.80;;;;;;;;;;5011091;28;20026;-50
2023/08/04 15:18:40;;;;;;;63.53;7.13;;;;;;;;;;5011211;28;20038;-51
2023/08/04 15:21:07;;;;;;;58.35;6.47;;;;;;;;;;4993283;28;20022;-51
2023/08/04 15:23:34;;;;;;;81.60;8.88;;;;;;;;;;5010510;28;20030;-52
2023/08/04 15:26:01;;;;;;;69.03;7.15;;;;;;;;;;5010566;28;20021;-50
2023/08/04 15:28:28;;;;;;;67.43;9.00;;;;;;;;;;5010265;28;20022;-53
2023/08/04 15:31:04;;;;;;;79.40;8.73;;;;;;;;;;5010303;28;20040;-50
2023/08/04 15:33:34;;;;;;;71.22;8.52;;;;;;;;;;5010738;28;20030;-53
2023/08/04 15:36:02;;;;;;;67.22;7.18;;;;;;;;;;5025465;28;20107;-53
2023/08/04 15:38:29;;;;;;;64.82;7.15;;;;;;;;;;5033020;28;20033;-51
2023/08/04 15:41:00;;;;;;;78.95;8.43;;;;;;;;;;5032976;28;20033;-52
2023/08/04 15:43:27;;;;;;;79.82;9.07;;;;;;;;;;5031114;28;20096;-50
2023/08/04 15:45:54;;;;;;;67.82;9.00;;;;;;;;;;5032786;28;20034;-51
2023/08/04 15:48:21;;;;;;;71.03;7.88;;;;;;;;;;5031859;28;20026;-52
2023/08/04 15:50:48;;;;;;;90.80;9.07;;;;;;;;;;5033472;28;20104;-53
2023/08/04 15:53:16;;;;;;;93.63;10.48;;;;;;;;;;5014376;28;20450;-49
2023/08/04 15:55:43;;;;;;;81.85;9.00;;;;;;;;;;5032254;28;20038;-48
2023/08/04 15:58:10;;;;;;;71.28;9.73;;;;;;;;;;5032654;28;20069;-51
2023/08/04 16:00:37;;;;;;;115.25;12.48;;;;;;;;;;5028368;28;20032;-48
2023/08/04 16:03:04;;;;;;;116.65;12.32;;;;;;;;;;5027557;28;20541;-48
2023/08/04 16:05:31;;;;;;;102.65;11.52;;;;;;;;;;5023748;28;20029;-48
2023/08/04 16:07:58;;;;;;;87.45;11.15;;;;;;;;;;5013701;28;20057;-52
2023/08/04 16:10:25;;;;;;;150.18;15.60;;;;;;;;;;4996104;28;20072;-50
2023/08/04 16:12:52;;;;;;;98.82;12.50;;;;;;;;;;5013881;28;20032;-47
2023/08/04 16:15:20;;;;;;;103.63;13.23;;;;;;;;;;5013751;28;20038;-48
2023/08/04 16:17:47;;;;;;;105.65;12.80;;;;;;;;;;5013725;28;20032;-47
2023/08/04 16:20:14;;;;;;;83.80;12.07;;;;;;;;;;5013951;28;20033;-49
2023/08/04 16:22:40;;;;;;;108.40;13.55;;;;;;;;;;5013690;28;20018;-48
2023/08/04 16:25:08;;;;;;;102.72;13.93;;;;;;;;;;5013515;28;20026;-47
2023/08/04 16:27:35;;;;;;;118.65;14.38;;;;;;;;;;5013607;28;20057;-53
2023/08/04 16:30:02;;;;;;;106.30;13.30;;;;;;;;;;4995828;28;20037;-53
2023/08/04 16:32:29;;;;;;;110.20;13.50;;;;;;;;;;5013602;28;20141;-52
2023/08/04 16:34:57;;;;;;;106.55;13.20;;;;;;;;;;4995520;28;20042;-51
2023/08/04 16:37:24;;;;;;;102.32;13.80;;;;;;;;;;5013596;28;20029;-47
2023/08/04 16:39:51;;;;;;;93.63;12.55;;;;;;;;;;4995688;28;20034;-47
2023/08/04 16:42:18;;;;;;;102.93;11.55;;;;;;;;;;5012706;28;20055;-49
2023/08/04 16:44:45;;;;;;;103.22;11.95;;;;;;;;;;5012769;28;20026;-46
2023/08/04 16:47:12;;;;;;;100.65;12.30;;;;;;;;;;5013368;28;20112;-47
2023/08/04 16:49:38;;;;;;;85.43;11.77;;;;;;;;;;5013164;28;20038;-47
2023/08/04 16:52:06;;;;;;;102.95;12.27;;;;;;;;;;5016791;28;20123;-52
2023/08/04 16:54:33;;;;;;;87.55;11.23;;;;;;;;;;5026311;28;20037;-49
2023/08/04 16:57:00;;;;;;;89.70;12.43;;;;;;;;;;5023154;28;20026;-46
2023/08/04 16:59:27;;;;;;;74.22;10.40;;;;;;;;;;5022448;28;20033;-53
2023/08/04 17:01:54;;;;;;;100.05;12.38;;;;;;;;;;5021387;28;20053;-47
2023/08/04 17:04:21;;;;;;;91.38;12.50;;;;;;;;;;5023144;28;20025;-48
2023/08/04 17:06:48;;;;;;;91.22;11.68;;;;;;;;;;5004300;28;20030;-47
2023/08/04 17:09:15;;;;;;;75.13;11.77;;;;;;;;;;5021124;28;20042;-48
2023/08/04 17:11:42;;;;;;;76.53;11.15;;;;;;;;;;5022707;28;20040;-48
2023/08/04 17:14:14;;;;;;;74.50;10.85;;;;;;;;;;5022305;28;20080;-47
2023/08/04 17:16:42;;;;;;;65.25;10.35;;;;;;;;;;5025109;28;20112;-48
2023/08/04 17:19:09;;;;;;;65.10;10.38;;;;;;;;;;5022304;28;20032;-48
2023/08/04 17:21:36;;;;;;;78.70;11.50;;;;;;;;;;5020883;28;20084;-48
2023/08/04 17:24:03;;;;;;;61.13;10.73;;;;;;;;;;5022343;28;20056;-49
2023/08/04 17:26:30;;;;;;;78.78;11.20;;;;;;;;;;5022347;28;20034;-49
2023/08/04 17:28:57;;;;;;;71.95;10.32;;;;;;;;;;5020712;28;20041;-48
2023/08/04 17:31:24;;;;;;;76.63;10.38;;;;;;;;;;5022238;28;20061;-52
2023/08/04 17:33:51;;;;;;;70.20;10.48;;;;;;;;;;5023970;28;20032;-48
2023/08/04 17:36:18;;;;;;;62.25;9.93;;;;;;;;;;5020515;28;20048;-48
2023/08/04 17:38:45;;;;;;;59.13;9.75;;;;;;;;;;5021912;28;20027;-47
2023/08/04 17:41:12;;;;;;;52.75;9.57;;;;;;;;;;5022485;28;20029;-50
2023/08/04 17:43:39;;;;;;;65.72;10.13;;;;;;;;;;5020325;28;20125;-49
2023/08/04 17:46:06;;;;;;;55.42;9.30;;;;;;;;;;5021639;28;20033;-48
2023/08/04 17:48:33;;;;;;;58.05;9.88;;;;;;;;;;5022308;28;20021;-48
2023/08/04 17:51:00;;;;;;;55.10;9.50;;;;;;;;;;5022524;28;20021;-49
2023/08/04 17:53:27;;;;;;;60.75;9.23;;;;;;;;;;5021314;28;20029;-48
2023/08/04 17:55:54;;;;;;;46.70;8.65;;;;;;;;;;5020224;28;20033;-52
2023/08/04 17:58:21;;;;;;;52.35;8.70;;;;;;;;;;5022494;28;20032;-48
2023/08/04 18:00:48;;;;;;;51.38;9.10;;;;;;;;;;5021576;28;20033;-49
2023/08/04 18:03:15;;;;;;;55.45;9.00;;;;;;;;;;5020139;28;20034;-49
2023/08/04 18:05:42;;;;;;;54.25;9.30;;;;;;;;;;5022014;28;20072;-51
2023/08/04 18:08:10;;;;;;;51.75;8.45;;;;;;;;;;5021722;28;20182;-52
2023/08/04 18:10:46;;;;;;;56.22;8.77;;;;;;;;;;5020106;28;20042;-52
2023/08/04 18:13:21;;;;;;;55.72;8.82;;;;;;;;;;5001994;28;20395;-52
2023/08/04 18:15:48;;;;;;;52.95;8.50;;;;;;;;;;5022155;28;20113;-52
2023/08/04 18:18:15;;;;;;;39.45;8.05;;;;;;;;;;5022170;28;20030;-50
2023/08/04 18:20:42;;;;;;;49.60;8.18;;;;;;;;;;5020658;28;20025;-49
2023/08/04 18:23:10;;;;;;;57.55;8.77;;;;;;;;;;5020695;28;20083;-52
2023/08/04 18:25:38;;;;;;;41.70;7.90;;;;;;;;;;5022078;28;20040;-52
2023/08/04 18:28:05;;;;;;;45.65;8.00;;;;;;;;;;5020872;28;20384;-52
2023/08/04 18:30:32;;;;;;;46.65;7.93;;;;;;;;;;5020267;28;20054;-52
2023/08/04 18:33:00;;;;;;;45.95;7.90;;;;;;;;;;5024624;28;20517;-52
2023/08/04 18:35:27;;;;;;;43.95;8.18;;;;;;;;;;5021022;28;20078;-51
2023/08/04 18:37:54;;;;;;;42.15;8.05;;;;;;;;;;5020028;28;20112;-52
2023/08/04 18:40:21;;;;;;;49.17;8.43;;;;;;;;;;5022061;28;20498;-51
2023/08/04 18:42:48;;;;;;;42.35;8.13;;;;;;;;;;5003308;28;20029;-51
2023/08/04 18:45:15;;;;;;;39.10;7.45;;;;;;;;;;5019780;28;20045;-52
2023/08/04 18:47:43;;;;;;;40.55;7.88;;;;;;;;;;5021584;28;20033;-50
2023/08/04 18:50:10;;;;;;;50.05;7.90;;;;;;;;;;5021230;28;20033;-50
2023/08/04 18:52:37;;;;;;;47.30;7.80;;;;;;;;;;5019835;28;20484;-51
2023/08/04 18:55:04;;;;;;;42.13;8.15;;;;;;;;;;5021027;28;20033;-50
2023/08/04 18:57:31;;;;;;;41.25;7.07;;;;;;;;;;5021542;28;20080;-50
2023/08/04 18:59:58;;;;;;;49.47;8.20;;;;;;;;;;5019717;28;20076;-51
2023/08/04 19:02:25;;;;;;;36.67;7.45;;;;;;;;;;5020922;28;20116;-52
2023/08/04 19:04:52;;;;;;;44.22;7.85;;;;;;;;;;5021466;28;20514;-51
2023/08/04 19:07:19;;;;;;;40.03;6.97;;;;;;;;;;5027009;28;20026;-52
2023/08/04 19:09:46;;;;;;;45.38;7.22;;;;;;;;;;5024461;28;20045;-53
2023/08/04 19:12:13;;;;;;;35.50;7.07;;;;;;;;;;5023607;28;20543;-52
2023/08/04 19:14:40;;;;;;;38.95;6.63;;;;;;;;;;5025345;28;20052;-48
2023/08/04 19:17:07;;;;;;;37.35;6.75;;;;;;;;;;5024390;28;20041;-52
2023/08/04 19:19:34;;;;;;;36.35;7.40;;;;;;;;;;5005398;28;20416;-53
2023/08/04 19:22:02;;;;;;;40.78;6.68;;;;;;;;;;5025053;28;20030;-52
2023/08/04 19:24:29;;;;;;;35.38;7.47;;;;;;;;;;5024329;28;20079;-49
2023/08/04 19:26:56;;;;;;;35.28;6.22;;;;;;;;;;5023068;28;20057;-50
2023/08/04 19:29:23;;;;;;;30.30;6.20;;;;;;;;;;5024285;28;20120;-49
2023/08/04 19:31:50;;;;;;;37.00;6.90;;;;;;;;;;5024497;28;20100;-49
2023/08/04 19:34:17;;;;;;;38.97;6.72;;;;;;;;;;5022928;28;20105;-47
2023/08/04 19:36:47;;;;;;;33.25;6.53;;;;;;;;;;5024157;28;20052;-49
2023/08/04 19:39:14;;;;;;;35.80;6.88;;;;;;;;;;5025097;28;21470;-52
2023/08/04 19:41:42;;;;;;;38.60;6.88;;;;;;;;;;5024848;28;20029;-52
2023/08/04 19:44:09;;;;;;;31.70;6.30;;;;;;;;;;5024123;28;20029;-50
2023/08/04 19:46:36;;;;;;;31.70;6.35;;;;;;;;;;5022838;28;20033;-51
2023/08/04 19:49:02;;;;;;;31.80;6.38;;;;;;;;;;5024290;28;20126;-47
2023/08/04 19:51:30;;;;;;;34.00;7.10;;;;;;;;;;5024022;28;20391;-50
2023/08/04 19:53:57;;;;;;;37.50;7.63;;;;;;;;;;5022496;28;20025;-48
2023/08/04 19:56:24;;;;;;;33.95;6.05;;;;;;;;;;5024184;28;20505;-51
2023/08/04 19:58:52;;;;;;;31.08;6.85;;;;;;;;;;5024224;28;20097;-49
2023/08/04 20:01:19;;;;;;;27.83;6.60;;;;;;;;;;5022414;28;20478;-52
2023/08/04 20:03:46;;;;;;;34.05;5.53;;;;;;;;;;5023710;28;20029;-49
2023/08/04 20:06:13;;;;;;;34.10;6.65;;;;;;;;;;5024310;28;20038;-51
2023/08/04 20:08:41;;;;;;;40.03;6.80;;;;;;;;;;5024288;28;20402;-48
2023/08/04 20:11:08;;;;;;;34.25;7.22;;;;;;;;;;5023407;28;20095;-49
2023/08/04 20:13:36;;;;;;;29.08;6.28;;;;;;;;;;5022000;28;20112;-48
2023/08/04 20:16:07;;;;;;;29.70;5.95;;;;;;;;;;5023856;28;20025;-47